首页
METAR-TAF:

METAR-TAF

机场 :

Alpnach, 瑞士

纬度: 46-56-19N, 经度: 8-17-03E, 海拔: 440米

当前天气观测

该预报发布于32分钟前的08:20 UTC
风速2节,风向多变
温度 16°C
湿度 77%
气压 1013 hPa
能见度10公里或以上
少量云层高于18000英尺

METAR: LSMA 220820Z AUTO VRB02KT 9999NDV FEW180 16/12 Q1013 RMK

时间: 10:52 (08:52 UTC)


TAF: 丢失

超过4000个机场的气象观测和天气预报(METAR&TAF报告)。

可查询的气象台以黄色和红色小点在地图上表示。

将鼠标移到小点上方,可查看气象台名称。

然后点击查看天气观测和预报。

如需切换地图:点击带黑十字的绿色按钮放大地图;点击带横线的绿色按钮缩小地图;或者点击绿色箭头查看邻近地区的地图。


METAR-TAF: